Time;durP1;ratioP1;P1;durP2;ratioP2;P2;SDS_P1;SDS_P2;PMS_P1;PMS_P2;Temp;Humidity;BMP_temperature;BMP_pressure;BME280_temperature;BME280_humidity;BME280_pressure;Samples;Min_cycle;Max_cycle;Signal;HPM_P1;HPM_P2
2023/07/12 00:04:40;;;;;;;6.63;4.40;;;21.50;76.10;;;20.49;65.49;100021.34;12341964;23;96337;-86
2023/07/12 00:09:45;;;;;;;6.72;3.90;;;21.40;76.50;;;20.42;65.78;100007.13;12318773;23;96518;-86
2023/07/12 00:14:48;;;;;;;4.85;3.60;;;21.30;76.80;;;20.38;66.48;100020.28;12367798;23;96438;-87
2023/07/12 00:19:52;;;;;;;7.28;3.85;;;21.30;77.20;;;20.31;66.31;100015.00;12341043;23;97041;-87
2023/07/12 00:24:55;;;;;;;8.32;4.70;;;21.20;77.20;;;20.32;66.81;100035.53;12341772;23;96532;-87
2023/07/12 00:30:00;;;;;;;5.80;4.57;;;21.20;77.60;;;20.32;65.89;100045.50;12328947;23;96509;-86
2023/07/12 00:35:04;;;;;;;7.40;3.88;;;21.20;77.20;;;20.31;65.57;100043.88;12348589;23;96428;-86
2023/07/12 00:41:07;;;;;;;5.15;3.90;;;21.20;77.10;;;20.24;65.97;100027.78;12366625;23;96470;-86
2023/07/12 00:46:35;;;;;;;9.43;3.92;;;21.20;77.20;;;20.17;66.13;100019.00;12344624;23;96463;-86
2023/07/12 00:52:11;;;;;;;6.25;4.13;;;21.10;77.10;;;20.13;66.73;100025.91;12342821;23;96585;-87
2023/07/12 00:57:15;;;;;;;5.60;3.95;;;21.10;77.40;;;20.14;66.43;100018.66;12342084;23;96451;-87
2023/07/12 01:02:23;;;;;;;6.40;4.28;;;21.10;77.20;;;20.18;66.66;100017.13;12335999;23;96443;-86
2023/07/12 01:07:30;;;;;;;4.90;3.70;;;21.10;77.50;;;20.19;66.50;100008.78;12344123;23;96574;-87
2023/07/12 01:12:34;;;;;;;7.32;4.43;;;21.10;77.40;;;20.24;65.98;100021.59;12344068;23;96735;-87
2023/07/12 01:17:38;;;;;;;4.75;3.15;;;21.20;77.30;;;20.32;66.10;99999.63;12343308;23;96535;-87
2023/07/12 01:22:42;;;;;;;4.82;3.53;;;21.20;77.30;;;20.37;66.11;99990.84;12342536;23;96360;-87
2023/07/12 01:27:45;;;;;;;7.18;3.30;;;21.30;77.20;;;20.41;65.75;99989.31;12343628;23;96503;-87
2023/07/12 01:32:52;;;;;;;5.03;3.30;;;21.30;77.20;;;20.46;65.66;99990.28;12344141;23;96576;-87
2023/07/12 01:37:56;;;;;;;4.43;3.40;;;21.40;77.20;;;20.48;65.10;99988.16;12343443;23;97495;-86
2023/07/12 01:42:59;;;;;;;7.05;3.90;;;21.40;77.00;;;20.46;65.45;99984.88;12368860;23;96590;-86
2023/07/12 01:48:03;;;;;;;7.75;4.25;;;21.40;76.90;;;20.49;64.79;99994.34;12320062;23;96520;-87
2023/07/12 01:53:08;;;;;;;6.75;4.32;;;21.40;76.90;;;20.54;65.20;99989.88;12320450;23;96746;-87
2023/07/12 01:58:12;;;;;;;6.78;3.65;;;21.40;77.10;;;20.53;65.99;100000.94;12344921;23;96708;-88
2023/07/12 02:03:16;;;;;;;7.38;4.00;;;21.50;77.20;;;20.56;66.11;99997.75;12320428;23;96905;-88
2023/07/12 02:08:21;;;;;;;7.45;5.13;;;21.50;77.30;;;20.52;66.10;99988.50;12343640;23;96563;-88
2023/07/12 02:13:24;;;;;;;5.70;4.00;;;21.50;77.60;;;20.55;66.32;99996.09;12342763;23;96695;-88
2023/07/12 02:18:28;;;;;;;7.43;3.67;;;21.40;78.30;;;20.52;66.30;99997.41;12367013;23;96778;-87
2023/07/12 02:23:31;;;;;;;5.63;4.15;;;21.40;77.80;;;20.54;66.37;99989.88;12343854;23;96897;-87
2023/07/12 02:28:36;;;;;;;4.88;3.50;;;21.40;78.10;;;20.51;66.45;99971.50;12341587;23;96708;-88
2023/07/12 02:33:40;;;;;;;4.70;3.60;;;21.50;78.20;;;20.51;67.27;99967.94;12341324;23;96406;-88
2023/07/12 02:38:44;;;;;;;3.80;3.10;;;21.40;78.40;;;20.48;67.70;99954.94;12343466;23;96480;-88
2023/07/12 02:43:48;;;;;;;5.00;3.70;;;21.40;78.70;;;20.42;68.40;99962.06;12342454;23;96533;-88
2023/07/12 02:48:51;;;;;;;7.63;3.83;;;21.30;79.20;;;20.43;68.56;99963.72;12342316;23;97095;-88
2023/07/12 02:53:55;;;;;;;4.55;3.17;;;21.30;79.40;;;20.49;68.55;99961.97;12344901;23;96629;-88
2023/07/12 02:58:58;;;;;;;5.28;3.95;;;21.40;79.50;;;20.48;68.56;99960.34;12319779;23;96465;-88
2023/07/12 03:04:03;;;;;;;4.90;3.50;;;21.40;79.70;;;20.55;69.04;99955.63;12344958;23;96451;-87
2023/07/12 03:09:07;;;;;;;8.43;4.28;;;21.40;79.70;;;20.60;69.21;99946.81;12345138;23;96503;-87
2023/07/12 03:14:11;;;;;;;7.57;4.90;;;21.50;80.10;;;20.65;69.24;99938.81;12345431;23;96415;-88
2023/07/12 03:19:16;;;;;;;6.90;4.63;;;21.60;80.60;;;20.70;69.44;99936.22;12344032;23;96571;-88
2023/07/12 03:24:20;;;;;;;6.63;3.80;;;21.60;80.20;;;20.75;69.24;99947.94;12342771;23;96604;-88
2023/07/12 03:29:24;;;;;;;5.78;3.95;;;21.60;80.10;;;20.79;68.86;99950.97;12372688;23;96605;-88
2023/07/12 03:34:31;;;;;;;5.90;3.38;;;21.70;80.10;;;20.89;69.02;99971.94;12319956;23;96497;-88
2023/07/12 03:39:35;;;;;;;9.30;4.90;;;21.80;80.10;;;20.96;69.14;99968.03;12344157;23;96498;-88
2023/07/12 03:44:39;;;;;;;6.30;3.58;;;21.80;80.10;;;21.03;69.19;99949.78;12365703;23;96400;-88
2023/07/12 03:49:43;;;;;;;6.68;4.32;;;22.00;80.30;;;21.15;69.09;99954.31;12366666;23;96433;-88
2023/07/12 03:54:47;;;;;;;9.27;4.50;;;22.00;80.10;;;21.18;69.29;99943.84;12315493;23;96481;-88
2023/07/12 03:59:51;;;;;;;6.35;3.97;;;22.10;80.30;;;21.26;69.76;99948.84;12345667;23;96786;-87
2023/07/12 04:04:54;;;;;;;11.15;4.10;;;22.10;80.60;;;21.32;69.18;99955.19;12340384;23;96810;-88
2023/07/12 04:09:58;;;;;;;5.40;3.65;;;22.20;80.50;;;21.40;69.13;99965.59;12319471;23;96481;-88
2023/07/12 04:15:01;;;;;;;6.60;3.75;;;22.30;80.30;;;21.52;68.99;99963.63;12352732;23;96413;-88
2023/07/12 04:20:06;;;;;;;5.47;4.05;;;22.40;80.60;;;21.63;68.50;99957.34;12355122;23;96419;-88
2023/07/12 04:25:10;;;;;;;4.00;3.20;;;22.50;80.10;;;21.74;68.22;99952.91;12341247;23;96459;-88
2023/07/12 04:30:16;;;;;;;9.18;4.28;;;22.60;79.90;;;21.82;68.02;99930.84;12341275;23;96645;-88
2023/07/12 04:35:20;;;;;;;6.03;3.95;;;22.80;80.10;;;21.93;67.89;99923.69;12365991;23;96783;-88
2023/07/12 04:40:24;;;;;;;8.18;5.03;;;22.90;80.00;;;21.99;67.22;99920.00;12341906;23;96752;-88
2023/07/12 04:45:29;;;;;;;5.97;3.67;;;22.90;79.60;;;22.05;66.79;99927.13;12339541;23;96686;-87
2023/07/12 04:50:34;;;;;;;6.50;4.20;;;23.00;79.10;;;22.06;66.54;99931.44;12365913;23;96662;-88
2023/07/12 04:55:38;;;;;;;5.45;3.80;;;23.00;79.10;;;22.08;66.98;99942.88;12342390;23;96928;-87
2023/07/12 05:00:43;;;;;;;5.53;3.38;;;23.10;79.20;;;22.13;67.70;99958.38;12342237;23;96563;-87
2023/07/12 05:05:47;;;;;;;5.45;4.05;;;23.10;79.70;;;22.06;67.77;99950.41;12318790;23;97011;-87
2023/07/12 05:10:50;;;;;;;4.97;3.45;;;23.00;80.10;;;22.03;68.53;99950.09;12342485;23;96995;-87
2023/07/12 05:15:54;;;;;;;8.30;4.88;;;23.00;80.60;;;21.95;69.33;99958.63;12318797;23;96959;-87
2023/07/12 05:20:58;;;;;;;5.68;3.50;;;22.90;80.90;;;21.90;69.53;99953.97;12341062;23;96790;-87
2023/07/12 05:26:02;;;;;;;5.43;4.05;;;22.80;81.40;;;21.85;69.73;99949.28;12338893;23;97015;-88
2023/07/12 05:31:10;;;;;;;7.38;4.38;;;22.80;81.40;;;21.81;69.51;99952.75;12340003;23;96800;-87
2023/07/12 05:36:15;;;;;;;7.78;5.32;;;22.70;81.60;;;21.73;69.90;99945.06;12340083;23;96881;-87
2023/07/12 05:41:19;;;;;;;6.38;4.80;;;22.70;81.60;;;21.77;69.90;99938.06;12337592;23;96586;-88
2023/07/12 05:46:23;;;;;;;6.90;4.78;;;22.70;81.60;;;21.77;69.25;99952.44;12337260;23;96599;-87
2023/07/12 05:51:27;;;;;;;5.70;4.30;;;22.80;81.40;;;21.83;68.88;99959.56;12340579;23;96804;-88
2023/07/12 05:56:30;;;;;;;6.70;4.18;;;22.80;81.30;;;21.90;69.09;99962.09;12340702;23;96561;-88
2023/07/12 06:01:34;;;;;;;8.52;4.65;;;22.80;81.10;;;22.13;69.31;99972.75;12347980;23;96768;-87
2023/07/12 06:06:38;;;;;;;6.63;4.18;;;23.00;81.60;;;22.34;67.92;99954.88;12340852;23;96778;-86
2023/07/12 06:11:42;;;;;;;6.35;4.47;;;23.20;80.90;;;22.60;66.41;99945.16;12361463;23;96547;-86
2023/07/12 06:16:46;;;;;;;7.32;4.00;;;23.50;80.30;;;22.84;65.25;99923.22;12322672;23;96494;-87
2023/07/12 06:21:49;;;;;;;7.10;4.38;;;23.70;79.30;;;23.08;64.79;99902.88;12366895;23;96863;-85
2023/07/12 06:26:53;;;;;;;5.60;4.03;;;24.00;79.10;;;23.31;61.37;99906.34;12339498;23;96825;-85
2023/07/12 06:31:56;;;;;;;5.85;3.80;;;24.20;77.30;;;23.50;61.62;99881.28;12341373;23;97523;-85
2023/07/12 06:37:00;;;;;;;8.18;4.28;;;24.40;76.60;;;23.59;60.33;99878.91;12341286;23;96474;-85
2023/07/12 06:42:04;;;;;;;16.35;6.28;;;24.50;75.60;;;23.63;59.90;99892.78;12340680;23;96879;-85
2023/07/12 06:47:08;;;;;;;5.75;4.40;;;24.60;75.20;;;23.69;59.86;99892.56;12366367;23;96658;-86
2023/07/12 06:52:11;;;;;;;8.70;5.10;;;24.60;75.00;;;23.74;60.54;99884.44;12343060;23;97407;-85
2023/07/12 06:57:15;;;;;;;6.63;4.00;;;24.70;75.20;;;23.90;60.66;99889.97;12340984;23;96808;-84
2023/07/12 07:02:19;;;;;;;22.77;5.53;;;24.80;75.40;;;24.09;60.35;99885.72;12367499;23;96683;-85
2023/07/12 07:07:23;;;;;;;10.80;4.53;;;25.00;75.20;;;24.35;60.75;99894.84;12367846;23;96537;-84
2023/07/12 07:12:29;;;;;;;5.15;4.10;;;25.30;75.10;;;24.60;58.43;99877.00;12342572;23;97491;-85
2023/07/12 07:17:32;;;;;;;5.55;3.85;;;25.50;74.30;;;24.76;57.93;99856.91;12340854;23;96900;-85
2023/07/12 07:22:36;;;;;;;8.98;4.47;;;25.70;73.50;;;24.92;58.76;99833.28;12342686;23;96435;-84
2023/07/12 07:27:39;;;;;;;7.32;4.72;;;25.90;73.70;;;25.02;57.68;99803.38;12320399;23;96930;-85
2023/07/12 07:32:45;;;;;;;10.27;4.78;;;26.00;73.30;;;25.03;57.60;99785.97;12366508;23;96837;-85
2023/07/12 07:37:48;;;;;;;6.88;4.72;;;26.00;73.10;;;25.11;57.76;99788.16;12342090;23;96772;-85
2023/07/12 07:42:55;;;;;;;9.38;4.50;;;26.10;73.20;;;25.27;58.51;99786.25;12343035;23;96272;-85
2023/07/12 07:47:59;;;;;;;6.82;4.45;;;26.30;73.60;;;25.49;57.20;99789.47;12341956;23;96672;-85
2023/07/12 07:53:04;;;;;;;5.15;4.05;;;26.40;73.30;;;25.73;56.68;99783.38;12341525;23;96901;-85
2023/07/12 07:58:09;;;;;;;11.57;4.85;;;26.70;72.90;;;25.87;55.93;99779.84;12340404;23;96516;-85
2023/07/12 08:03:13;;;;;;;8.95;4.57;;;26.80;72.40;;;26.06;55.69;99760.97;12341928;23;96864;-85
2023/07/12 08:08:20;;;;;;;10.10;4.70;;;27.10;72.00;;;26.39;55.61;99756.69;12364417;23;96495;-86
2023/07/12 08:13:23;;;;;;;11.55;4.60;;;27.30;72.00;;;26.58;54.16;99750.59;12320708;23;96912;-85
2023/07/12 08:18:27;;;;;;;10.15;5.72;;;27.50;71.00;;;26.67;53.64;99740.69;12345184;23;96498;-85
2023/07/12 08:23:31;;;;;;;7.32;4.72;;;27.60;70.60;;;26.86;53.09;99735.34;12345554;23;96863;-85
2023/07/12 08:28:35;;;;;;;8.02;5.07;;;27.80;70.30;;;26.99;52.81;99729.25;12346920;23;96398;-85
2023/07/12 08:33:39;;;;;;;6.75;4.68;;;28.00;69.70;;;27.23;53.07;99729.31;12344653;23;96420;-85
2023/07/12 08:38:43;;;;;;;8.02;4.43;;;28.20;69.90;;;27.42;52.66;99732.09;12345036;23;96888;-84
2023/07/12 08:43:47;;;;;;;10.15;5.00;;;28.30;69.90;;;27.55;52.03;99746.94;12368664;23;96583;-84
2023/07/12 08:48:59;;;;;;;8.10;4.75;;;28.40;69.60;;;27.67;50.35;99720.03;12369556;23;96571;-85
2023/07/12 08:54:04;;;;;;;7.03;5.00;;;28.60;68.80;;;27.70;50.40;99733.13;12345507;23;96422;-85
2023/07/12 08:59:13;;;;;;;6.78;5.10;;;28.60;68.20;;;27.78;51.49;99748.88;12367094;23;96428;-85
2023/07/12 09:04:31;;;;;;;9.17;5.10;;;28.70;68.50;;;27.93;49.71;99750.56;12344738;23;96649;-85
2023/07/12 09:09:38;;;;;;;7.38;4.93;;;28.90;68.00;;;28.07;50.18;99742.47;12346825;23;96398;-85
2023/07/12 09:14:42;;;;;;;6.25;4.93;;;29.00;67.70;;;28.21;49.88;99735.16;12347764;23;96450;-84
2023/07/12 09:19:45;;;;;;;7.30;4.82;;;29.10;67.60;;;28.33;49.30;99741.03;12389651;23;96707;-86
2023/07/12 09:24:54;;;;;;;5.65;5.10;;;29.20;67.40;;;28.52;49.29;99751.94;12360694;23;96469;-86
2023/07/12 09:30:04;;;;;;;10.85;5.22;;;29.40;67.20;;;28.62;47.95;99748.25;12344485;23;96539;-86
2023/07/12 09:35:45;;;;;;;8.70;4.97;;;29.50;66.60;;;28.70;47.61;99755.75;12321947;23;96489;-85
2023/07/12 09:40:50;;;;;;;8.13;4.68;;;29.60;66.30;;;28.75;48.23;99756.47;12346405;23;96512;-85
2023/07/12 09:46:24;;;;;;;9.55;5.55;;;29.80;66.30;;;28.88;48.70;99757.63;12343579;23;96541;-86
2023/07/12 09:51:49;;;;;;;7.50;5.07;;;29.90;66.80;;;28.94;47.76;99755.66;12365167;23;96436;-85
2023/07/12 09:57:31;;;;;;;5.60;4.75;;;29.90;66.30;;;29.04;48.89;99750.81;12371366;23;96871;-86
2023/07/12 10:03:26;;;;;;;9.73;6.32;;;30.00;66.60;;;29.08;47.69;99752.94;12343708;23;96476;-85
2023/07/12 10:08:46;;;;;;;9.02;5.60;;;30.10;66.10;;;29.11;48.28;99752.34;12345941;23;96547;-86
2023/07/12 10:14:03;;;;;;;7.65;5.47;;;30.10;66.70;;;29.19;47.23;99759.84;12343956;23;96513;-86
2023/07/12 10:19:28;;;;;;;6.55;5.03;;;30.20;66.40;;;29.27;47.25;99734.53;12344937;23;96698;-86
2023/07/12 10:24:42;;;;;;;7.47;5.65;;;30.30;65.70;;;29.39;46.81;99729.38;12344254;23;96776;-86
2023/07/12 10:30:18;;;;;;;8.00;5.35;;;30.40;65.10;;;29.37;47.21;99737.06;12343504;23;97471;-84
2023/07/12 10:35:34;;;;;;;9.93;5.70;;;30.40;65.80;;;29.59;47.99;99734.44;12365876;23;96330;-85
2023/07/12 10:40:51;;;;;;;8.13;5.28;;;30.50;65.40;;;29.80;47.56;99731.28;12369849;23;96449;-84
2023/07/12 10:46:06;;;;;;;8.48;5.10;;;30.80;65.60;;;30.01;46.65;99709.75;12343417;23;96408;-85
2023/07/12 10:51:40;;;;;;;7.32;5.43;;;31.00;65.00;;;30.15;45.67;99691.34;12344902;23;96593;-84
2023/07/12 10:57:01;;;;;;;9.57;5.28;;;31.20;64.30;;;30.44;46.13;99695.59;12367070;23;96947;-85
2023/07/12 11:02:05;;;;;;;8.23;5.50;;;31.40;64.40;;;30.69;45.76;99681.28;12344774;23;96576;-85
2023/07/12 11:07:14;;;;;;;9.75;5.82;;;31.70;64.00;;;30.97;44.55;99673.66;12367922;23;96490;-85
2023/07/12 11:12:37;;;;;;;7.43;5.32;;;32.00;63.70;;;31.18;43.89;99685.69;12367184;23;96724;-85
2023/07/12 11:18:20;;;;;;;9.23;5.60;;;32.20;63.30;;;31.35;44.05;99698.69;12344743;23;97265;-85
2023/07/12 11:23:38;;;;;;;10.05;5.25;;;32.40;62.30;;;31.26;44.85;99703.38;12347976;23;96663;-85
2023/07/12 11:28:44;;;;;;;8.60;5.75;;;32.20;63.40;;;31.26;44.67;99697.88;12345073;23;96500;-85
2023/07/12 11:34:12;;;;;;;8.38;5.53;;;32.20;63.30;;;31.49;44.73;99698.59;12343350;23;96531;-85
2023/07/12 11:39:21;;;;;;;9.27;4.97;;;32.40;63.20;;;31.69;44.37;99706.22;12343767;23;96647;-84
2023/07/12 11:44:25;;;;;;;9.57;6.05;;;32.70;63.10;;;31.86;44.74;99702.72;12366696;23;96671;-85
2023/07/12 11:49:30;;;;;;;6.97;5.90;;;32.90;63.50;;;32.09;44.83;99689.66;12320234;23;96483;-86
2023/07/12 11:54:43;;;;;;;8.35;5.20;;;33.10;63.40;;;32.30;43.23;99687.03;12340347;23;96576;-86
2023/07/12 11:59:50;;;;;;;13.10;5.70;;;33.40;62.60;;;32.50;43.05;99688.34;12340009;23;96897;-86
2023/07/12 12:04:59;;;;;;;9.33;6.07;;;33.50;62.10;;;32.56;43.25;99689.78;12340345;23;96448;-86
2023/07/12 12:10:07;;;;;;;6.40;4.78;;;33.70;62.30;;;32.83;43.06;99685.03;12340760;23;96803;-86
2023/07/12 12:15:27;;;;;;;11.27;6.20;;;34.00;62.10;;;33.17;42.08;99682.19;12339700;23;96509;-86
2023/07/12 12:20:32;;;;;;;8.43;5.40;;;34.30;61.30;;;33.52;42.13;99677.31;12341837;23;97296;-87
2023/07/12 12:25:46;;;;;;;7.18;5.40;;;34.70;61.50;;;33.80;42.28;99674.84;12364089;23;96851;-87
2023/07/12 12:31:13;;;;;;;8.20;5.22;;;35.10;61.00;;;33.96;40.63;99666.03;12336414;23;96725;-86
2023/07/12 12:36:28;;;;;;;5.75;4.30;;;35.20;60.20;;;34.18;37.30;99676.66;12368817;23;96472;-87
2023/07/12 12:41:48;;;;;;;8.27;4.35;;;35.60;56.50;;;34.37;36.49;99667.94;12365994;23;97227;-87
2023/07/12 12:46:55;;;;;;;9.23;4.57;;;35.70;56.50;;;34.43;36.52;99657.47;12343061;23;96592;-86
2023/07/12 12:52:34;;;;;;;6.90;4.90;;;35.70;56.10;;;34.50;37.77;99643.97;12342875;23;96432;-87
2023/07/12 12:57:58;;;;;;;6.70;4.45;;;35.70;56.20;;;34.43;37.02;99639.00;12347338;23;96459;-87
2023/07/12 13:03:06;;;;;;;6.50;4.55;;;35.60;56.50;;;34.19;37.49;99636.16;12344550;23;96595;-86
2023/07/12 13:08:18;;;;;;;6.45;4.45;;;35.20;56.80;;;34.00;37.91;99629.16;12346587;23;96381;-86
2023/07/12 13:13:24;;;;;;;7.05;4.97;;;35.10;57.10;;;33.67;38.89;99634.59;12345375;23;96361;-87
2023/07/12 13:18:31;;;;;;;6.88;4.70;;;34.70;57.70;;;33.54;39.59;99619.16;12322771;23;97278;-86
2023/07/12 13:23:37;;;;;;;8.13;4.57;;;34.50;57.90;;;33.50;39.36;99615.44;12340941;23;96417;-86
2023/07/12 13:28:42;;;;;;;5.70;4.13;;;34.60;57.80;;;33.50;39.13;99612.69;12342526;23;96575;-87
2023/07/12 13:33:47;;;;;;;6.22;4.07;;;34.50;57.80;;;33.44;39.48;99619.53;12344163;23;96669;-87
2023/07/12 13:39:17;;;;;;;8.05;4.40;;;34.30;58.30;;;33.47;39.88;99618.88;12344475;23;96429;-86
2023/07/12 13:44:25;;;;;;;6.20;3.72;;;34.30;58.70;;;33.73;38.93;99618.69;12349364;23;96460;-86
2023/07/12 13:49:31;;;;;;;;;;;34.50;58.50;;;33.98;37.03;99605.84;12340362;23;96820;-86
2023/07/12 13:54:36;;;;;;;6.53;4.03;;;34.70;57.90;;;34.34;36.44;99603.19;12361026;23;97042;-86
2023/07/12 13:59:40;;;;;;;5.65;3.03;;;35.00;56.80;;;34.66;34.36;99592.47;12316277;23;96571;-87
2023/07/12 14:04:44;;;;;;;4.32;3.05;;;35.10;55.30;;;34.63;33.66;99592.38;12340046;23;96911;-87
2023/07/12 14:09:52;;;;;;;5.03;2.75;;;35.10;54.00;;;34.79;32.92;99585.84;12341872;23;96713;-87
2023/07/12 14:15:23;;;;;;;4.20;2.85;;;35.30;53.30;;;34.97;32.40;99574.59;12347107;23;96417;-88
2023/07/12 14:20:27;;;;;;;6.43;2.70;;;35.60;53.30;;;35.02;32.22;99566.06;12367059;23;96432;-87
2023/07/12 14:25:33;;;;;;;3.67;2.40;;;35.60;52.70;;;35.21;31.99;99577.34;12366705;23;96730;-87
2023/07/12 14:30:36;;;;;;;2.88;2.15;;;35.90;52.20;;;35.19;30.50;99576.06;12319238;23;96866;-87
2023/07/12 14:35:43;;;;;;;4.45;2.42;;;36.00;50.70;;;35.14;31.38;99583.41;12344085;23;97166;-86
2023/07/12 14:40:47;;;;;;;4.80;2.88;;;36.00;50.80;;;35.12;30.62;99582.16;12343063;23;96443;-87
2023/07/12 14:45:52;;;;;;;9.18;3.10;;;36.10;50.60;;;35.02;30.52;99596.44;12343755;23;96428;-87
2023/07/12 14:50:56;;;;;;;4.95;2.72;;;36.10;50.00;;;34.87;31.25;99584.91;12368460;23;96511;-84
2023/07/12 14:55:59;;;;;;;3.25;2.58;;;36.00;50.20;;;34.72;32.00;99573.75;12343633;23;96485;-85
2023/07/12 15:01:03;;;;;;;6.68;3.00;;;35.80;50.90;;;35.02;31.81;99569.63;12341799;23;96839;-85
2023/07/12 15:06:08;;;;;;;4.13;3.00;;;36.20;51.70;;;35.35;31.79;99561.19;12341677;23;97018;-86
2023/07/12 15:11:19;;;;;;;4.43;2.92;;;36.50;50.90;;;35.96;31.78;99553.88;12341585;23;96693;-85
2023/07/12 15:16:23;;;;;;;4.65;2.70;;;37.00;50.90;;;36.43;29.75;99540.94;12343525;23;96491;-85
2023/07/12 15:21:32;;;;;;;4.63;3.05;;;37.40;50.20;;;36.65;29.74;99547.81;12341662;23;96507;-85
2023/07/12 15:26:36;;;;;;;5.65;3.30;;;37.60;49.70;;;36.73;29.99;99548.78;12343746;23;96399;-87
2023/07/12 15:31:39;;;;;;;6.03;3.40;;;37.80;49.80;;;36.78;29.60;99556.81;12342998;23;96489;-87
2023/07/12 15:36:43;;;;;;;3.97;2.83;;;38.00;49.20;;;37.01;28.80;99557.00;12320381;23;96367;-87
2023/07/12 15:41:48;;;;;;;4.35;2.45;;;38.20;49.00;;;37.09;28.85;99571.81;12344321;23;96470;-85
2023/07/12 15:46:52;;;;;;;5.72;2.60;;;38.40;48.40;;;36.89;28.37;99579.25;12366819;23;96413;-85
2023/07/12 15:51:55;;;;;;;7.35;3.05;;;38.20;47.80;;;36.82;28.59;99579.84;12367954;23;97338;-85
2023/07/12 15:57:00;;;;;;;3.60;2.55;;;38.00;48.10;;;36.67;28.87;99591.72;12340164;23;97010;-87
2023/07/12 16:02:17;;;;;;;8.60;3.03;;;37.80;48.10;;;36.08;29.72;99596.09;12342817;23;96832;-87
2023/07/12 16:07:21;;;;;;;4.05;2.90;;;37.20;48.50;;;35.21;30.63;99607.72;12343633;23;97181;-86
2023/07/12 16:12:26;;;;;;;9.13;2.95;;;36.20;49.10;;;34.32;31.73;99622.06;12367693;23;96441;-87
2023/07/12 16:17:30;;;;;;;4.22;2.78;;;35.20;50.00;;;33.64;33.20;99629.75;12342579;23;96474;-87
2023/07/12 16:22:34;;;;;;;5.22;2.70;;;34.50;51.10;;;33.02;34.28;99627.69;12342063;23;96903;-87
2023/07/12 16:27:38;;;;;;;5.40;2.75;;;33.80;51.90;;;32.50;35.02;99630.59;12340976;23;96423;-87
2023/07/12 16:32:43;;;;;;;5.22;2.70;;;33.30;53.00;;;32.06;35.71;99626.28;12337909;23;96603;-87
2023/07/12 16:37:48;;;;;;;4.90;2.55;;;32.80;53.60;;;31.77;36.50;99618.66;12343835;23;96610;-87
2023/07/12 16:42:56;;;;;;;6.30;2.83;;;32.50;54.10;;;31.54;37.10;99618.78;12346833;23;96455;-87
2023/07/12 16:48:01;;;;;;;3.65;2.65;;;32.30;54.70;;;31.40;38.25;99624.44;12365201;23;96515;-87
2023/07/12 16:53:24;;;;;;;5.57;2.80;;;32.10;55.60;;;31.22;38.94;99621.94;12343016;23;96848;-87
2023/07/12 16:58:31;;;;;;;5.40;2.60;;;31.90;56.30;;;31.06;40.08;99629.78;12347411;23;96590;-88
2023/07/12 17:03:43;;;;;;;4.97;2.40;;;31.70;57.00;;;30.84;40.39;99631.50;12367993;23;96448;-87
2023/07/12 17:08:48;;;;;;;6.95;2.58;;;31.50;57.40;;;30.67;40.87;99630.59;12345998;23;96464;-88
2023/07/12 17:13:53;;;;;;;6.82;2.60;;;31.40;57.80;;;30.53;41.18;99631.50;12344558;23;97165;-88
2023/07/12 17:19:00;;;;;;;4.50;2.75;;;31.20;58.00;;;30.50;41.55;99636.78;12343788;23;96400;-87
2023/07/12 17:24:12;;;;;;;7.68;3.08;;;31.20;58.40;;;30.35;42.83;99635.25;12374321;23;96592;-87
2023/07/12 17:29:16;;;;;;;3.90;2.55;;;31.10;59.00;;;30.17;43.68;99645.28;12352306;23;96328;-87
2023/07/12 17:34:28;;;;;;;5.55;2.88;;;31.00;59.90;;;29.99;44.49;99649.78;12345471;23;96951;-87
2023/07/12 17:39:32;;;;;;;7.75;2.90;;;30.80;60.50;;;29.89;44.94;99649.22;12343220;23;96534;-88
2023/07/12 17:44:37;;;;;;;6.05;2.67;;;30.70;61.10;;;29.76;45.16;99654.41;12320646;23;96469;-88
2023/07/12 17:49:41;;;;;;;4.97;2.80;;;30.50;61.40;;;29.61;46.00;99678.56;12343856;23;96868;-87
2023/07/12 17:54:47;;;;;;;4.00;2.60;;;30.40;62.00;;;29.39;45.70;99688.31;12296837;23;97006;-87
2023/07/12 17:59:50;;;;;;;5.53;2.58;;;30.20;62.30;;;29.22;45.76;99696.31;12344276;23;96531;-88
2023/07/12 18:04:57;;;;;;;5.95;2.63;;;30.00;62.50;;;29.09;46.78;99681.53;12344819;23;96466;-88
2023/07/12 18:10:01;;;;;;;7.50;3.08;;;29.90;62.80;;;29.09;46.40;99680.69;12343883;23;96907;-88
2023/07/12 18:15:16;;;;;;;5.15;3.47;;;29.90;63.00;;;29.01;47.13;99663.06;12347139;23;96899;-87
2023/07/12 18:20:22;;;;;;;5.13;3.33;;;29.80;63.50;;;28.96;48.03;99671.38;12343363;23;96706;-87
2023/07/12 18:25:26;;;;;;;5.75;2.92;;;29.80;64.00;;;28.81;48.57;99666.97;12350306;23;96766;-87
2023/07/12 18:30:30;;;;;;;5.75;2.75;;;29.70;64.60;;;28.70;49.31;99687.41;12342461;23;96571;-87
2023/07/12 18:35:34;;;;;;;4.45;2.90;;;29.50;65.10;;;28.54;50.25;99687.66;12341760;23;96534;-87
2023/07/12 18:40:39;;;;;;;6.22;2.88;;;29.30;65.70;;;28.34;51.34;99707.13;12340381;23;96895;-87
2023/07/12 18:45:43;;;;;;;3.97;2.50;;;29.10;66.40;;;28.17;50.91;99709.53;12366561;23;96723;-87
2023/07/12 18:50:47;;;;;;;4.38;2.53;;;29.00;66.40;;;28.03;51.06;99716.88;12320042;23;96734;-87
2023/07/12 18:55:51;;;;;;;5.65;2.42;;;28.80;66.40;;;27.85;51.12;99711.09;12340489;23;96770;-87
2023/07/12 19:00:55;;;;;;;6.53;3.05;;;28.60;66.60;;;27.74;52.17;99717.78;12367227;23;96758;-87
2023/07/12 19:06:04;;;;;;;6.43;2.63;;;28.50;67.20;;;27.60;51.76;99716.88;12343993;23;96636;-86
2023/07/12 19:11:24;;;;;;;5.97;2.95;;;28.40;67.20;;;27.50;52.32;99717.78;12343598;23;96927;-87
2023/07/12 19:16:29;;;;;;;4.07;2.80;;;28.30;67.60;;;27.28;52.55;99737.41;12342644;23;96810;-87
2023/07/12 19:21:35;;;;;;;5.63;2.67;;;28.10;67.70;;;27.08;52.83;99735.72;12341800;23;96378;-87
2023/07/12 19:26:40;;;;;;;9.20;3.10;;;27.90;67.90;;;26.91;53.08;99730.66;12321498;23;96379;-86
2023/07/12 19:31:47;;;;;;;4.97;2.55;;;27.70;68.00;;;26.77;53.25;99732.44;12340723;23;96708;-86
2023/07/12 19:36:55;;;;;;;4.65;2.60;;;27.60;68.30;;;26.67;53.86;99727.06;12342939;23;96528;-87
2023/07/12 19:41:59;;;;;;;8.70;2.87;;;27.40;68.70;;;26.57;54.62;99743.50;12344787;23;96686;-86
2023/07/12 19:47:09;;;;;;;6.68;3.00;;;27.30;69.00;;;26.44;55.19;99746.88;12342228;23;96407;-87
2023/07/12 19:52:15;;;;;;;5.25;3.10;;;27.20;69.50;;;26.33;55.10;99738.75;12342320;23;96649;-86
2023/07/12 19:57:20;;;;;;;4.68;3.10;;;27.10;69.80;;;26.27;55.49;99737.16;12344281;23;96903;-87
2023/07/12 20:02:28;;;;;;;5.97;3.17;;;27.00;69.80;;;26.16;56.77;99749.22;12344725;23;96410;-87
2023/07/12 20:07:32;;;;;;;9.63;2.97;;;26.90;70.30;;;26.06;56.48;99751.97;12344322;23;96454;-88
2023/07/12 20:12:37;;;;;;;5.20;2.97;;;26.80;70.50;;;25.90;56.27;99753.97;12344607;23;96874;-88
2023/07/12 20:17:40;;;;;;;4.10;3.00;;;26.70;70.50;;;25.79;56.37;99755.94;12345242;23;96486;-88
2023/07/12 20:22:44;;;;;;;4.93;2.83;;;26.60;70.80;;;25.73;56.43;99759.78;12319176;23;96518;-89
2023/07/12 20:27:48;;;;;;;5.45;3.38;;;26.50;71.10;;;25.66;57.07;99747.50;12364088;23;96501;-88
2023/07/12 20:32:51;;;;;;;4.05;2.85;;;26.40;71.20;;;25.58;57.10;99757.88;12337897;23;96918;-88
2023/07/12 20:37:55;;;;;;;5.22;3.35;;;26.40;71.20;;;25.49;57.14;99753.28;12365122;23;96374;-88
2023/07/12 20:42:59;;;;;;;8.95;2.60;;;26.30;71.30;;;25.43;57.19;99748.94;12340963;23;96940;-87
2023/07/12 20:48:06;;;;;;;5.60;2.60;;;26.30;71.40;;;25.30;57.81;99743.00;12319362;23;96923;-88
2023/07/12 20:53:10;;;;;;;7.45;3.35;;;26.20;71.60;;;25.19;58.34;99752.28;12341517;23;96538;-88
2023/07/12 20:58:13;;;;;;;7.78;3.15;;;26.00;72.10;;;25.02;59.52;99752.56;12337720;23;96814;-88
2023/07/12 21:03:17;;;;;;;7.25;3.25;;;25.90;72.80;;;24.93;59.47;99756.09;12314290;23;96728;-88
2023/07/12 21:08:21;;;;;;;7.63;3.25;;;25.70;73.00;;;24.79;60.55;99753.13;12339635;23;96821;-88
2023/07/12 21:13:28;;;;;;;5.65;3.80;;;25.60;73.50;;;24.67;61.30;99749.84;12375858;23;96327;-88
2023/07/12 21:18:32;;;;;;;5.22;3.25;;;25.50;74.10;;;24.54;61.69;99764.78;12372767;23;97312;-88
2023/07/12 21:23:38;;;;;;;4.47;2.40;;;25.40;74.20;;;24.45;61.72;99764.50;12343675;23;96777;-88